Time;durP1;ratioP1;P1;durP2;ratioP2;P2;SDS_P1;SDS_P2;PMS_P1;PMS_P2;Temp;Humidity;BMP_temperature;BMP_pressure;BME280_temperature;BME280_humidity;BME280_pressure;Samples;Min_cycle;Max_cycle;Signal;HPM_P1;HPM_P2
2022/01/30 00:02:01;;;;;;;1.85;0.98;;;;;;;;;;5014829;28;20022;-78
2022/01/30 00:04:27;;;;;;;2.60;1.00;;;;;;;;;;5016675;28;20029;-76
2022/01/30 00:06:53;;;;;;;2.83;1.30;;;;;;;;;;5016353;28;20048;-77
2022/01/30 00:09:22;;;;;;;3.45;1.00;;;;;;;;;;5016203;28;20536;-76
2022/01/30 00:11:53;;;;;;;4.15;1.20;;;;;;;;;;5014799;28;20022;-80
2022/01/30 00:14:21;;;;;;;2.85;0.90;;;;;;;;;;5015118;28;20026;-79
2022/01/30 00:16:56;;;;;;;2.40;1.08;;;;;;;;;;5016824;28;20053;-80
2022/01/30 00:19:30;;;;;;;3.88;0.93;;;;;;;;;;5015609;28;20455;-76
2022/01/30 00:22:16;;;;;;;2.83;0.95;;;;;;;;;;5015746;28;20026;-78
2022/01/30 00:27:16;;;;;;;2.67;0.80;;;;;;;;;;5015382;28;20390;-76
2022/01/30 00:29:42;;;;;;;1.40;0.70;;;;;;;;;;5016156;28;20113;-76
2022/01/30 00:32:09;;;;;;;2.55;0.70;;;;;;;;;;5015440;28;20626;-77
2022/01/30 00:34:35;;;;;;;1.45;0.80;;;;;;;;;;5014930;28;20069;-77
2022/01/30 00:37:02;;;;;;;2.33;0.73;;;;;;;;;;5015352;28;20026;-81
2022/01/30 00:39:29;;;;;;;1.67;0.80;;;;;;;;;;5014125;28;20554;-76
2022/01/30 00:41:55;;;;;;;2.00;0.70;;;;;;;;;;5015206;28;20033;-80
2022/01/30 00:44:21;;;;;;;1.90;0.60;;;;;;;;;;5013995;28;20041;-74
2022/01/30 00:46:48;;;;;;;1.77;0.55;;;;;;;;;;5015087;28;20159;-80
2022/01/30 00:49:14;;;;;;;1.13;0.47;;;;;;;;;;5015731;28;20030;-75
2022/01/30 00:51:40;;;;;;;1.25;0.43;;;;;;;;;;5013842;28;20048;-77
2022/01/30 00:54:06;;;;;;;1.80;0.60;;;;;;;;;;5013559;28;20498;-76
2022/01/30 00:56:33;;;;;;;1.08;0.45;;;;;;;;;;5014148;28;20076;-76
2022/01/30 00:58:59;;;;;;;2.13;0.50;;;;;;;;;;5014981;28;20471;-77
2022/01/30 01:01:25;;;;;;;0.93;0.30;;;;;;;;;;5013529;28;20022;-76
2022/01/30 01:03:51;;;;;;;1.50;0.40;;;;;;;;;;5014832;28;20034;-77
2022/01/30 01:06:18;;;;;;;1.25;0.55;;;;;;;;;;5013517;28;20038;-76
2022/01/30 01:09:01;;;;;;;1.00;0.50;;;;;;;;;;5015276;28;20143;-80
2022/01/30 01:11:56;;;;;;;;;;;;;;;;;;5013908;28;20030;-76
2022/01/30 01:25:15;;;;;;;1.65;0.70;;;;;;;;;;5014404;28;20516;-78
2022/01/30 01:27:42;;;;;;;2.05;0.80;;;;;;;;;;5013074;28;20026;-78
2022/01/30 01:30:08;;;;;;;1.17;0.50;;;;;;;;;;5014472;28;20426;-78
2022/01/30 01:32:34;;;;;;;2.00;0.80;;;;;;;;;;5013123;28;20026;-76
2022/01/30 01:35:01;;;;;;;2.08;0.63;;;;;;;;;;5014337;28;20034;-78
2022/01/30 01:37:27;;;;;;;2.70;0.80;;;;;;;;;;5014440;28;20110;-80
2022/01/30 01:39:54;;;;;;;1.65;0.63;;;;;;;;;;5014272;28;20109;-77
2022/01/30 01:42:20;;;;;;;1.27;0.70;;;;;;;;;;5012987;28;20026;-78
2022/01/30 01:44:51;;;;;;;2.30;0.65;;;;;;;;;;5012890;28;20030;-78
2022/01/30 01:47:20;;;;;;;0.88;0.40;;;;;;;;;;5012966;28;20565;-77
2022/01/30 01:49:49;;;;;;;1.77;0.70;;;;;;;;;;5012897;28;20026;-82
2022/01/30 01:52:23;;;;;;;1.58;0.68;;;;;;;;;;5012930;28;20076;-80
2022/01/30 01:54:50;;;;;;;1.88;0.50;;;;;;;;;;5012779;28;20116;-77
2022/01/30 01:57:16;;;;;;;1.08;0.55;;;;;;;;;;5014388;28;20033;-83
2022/01/30 01:59:42;;;;;;;1.38;0.60;;;;;;;;;;5012871;28;20068;-81
2022/01/30 02:02:08;;;;;;;0.85;0.40;;;;;;;;;;5012774;28;20598;-78
2022/01/30 02:04:37;;;;;;;1.48;0.60;;;;;;;;;;5012529;28;20148;-77
2022/01/30 02:09:48;;;;;;;1.50;0.57;;;;;;;;;;5013985;28;20052;-77
2022/01/30 02:12:19;;;;;;;1.23;0.45;;;;;;;;;;5012667;28;20528;-77
2022/01/30 02:25:38;;;;;;;1.27;0.40;;;;;;;;;;5014063;28;20048;-77
2022/01/30 02:28:10;;;;;;;1.40;0.60;;;;;;;;;;5012594;28;20033;-79
2022/01/30 02:30:40;;;;;;;1.35;0.52;;;;;;;;;;5014944;28;20030;-77
2022/01/30 02:33:06;;;;;;;1.13;0.50;;;;;;;;;;5013124;28;20030;-80
2022/01/30 02:35:32;;;;;;;1.13;0.60;;;;;;;;;;5012336;28;20057;-77
2022/01/30 02:38:00;;;;;;;1.40;0.50;;;;;;;;;;5014209;28;20100;-78
2022/01/30 02:40:29;;;;;;;1.77;0.63;;;;;;;;;;5012305;28;20069;-76
2022/01/30 02:42:56;;;;;;;1.52;0.50;;;;;;;;;;5013184;28;20030;-77
2022/01/30 02:45:26;;;;;;;0.98;0.50;;;;;;;;;;5013524;28;20065;-77
2022/01/30 02:48:00;;;;;;;1.02;0.50;;;;;;;;;;5012329;28;20037;-81
2022/01/30 02:50:39;;;;;;;;;;;;;;;;;;5012758;28;20026;-80
2022/01/30 02:53:09;;;;;;;1.65;0.60;;;;;;;;;;5012265;28;20293;-81
2022/01/30 02:55:35;;;;;;;2.63;0.40;;;;;;;;;;5012030;28;20125;-77
2022/01/30 02:58:01;;;;;;;1.20;0.40;;;;;;;;;;5012114;28;20032;-82
2022/01/30 03:00:28;;;;;;;1.38;0.50;;;;;;;;;;5012181;28;20033;-77
2022/01/30 03:02:54;;;;;;;1.48;0.40;;;;;;;;;;5012134;28;20033;-80
2022/01/30 03:05:20;;;;;;;0.82;0.50;;;;;;;;;;5012237;28;20022;-78
2022/01/30 03:07:46;;;;;;;0.80;0.40;;;;;;;;;;5012185;28;20100;-80
2022/01/30 03:10:14;;;;;;;0.73;0.30;;;;;;;;;;5012189;28;20032;-77
2022/01/30 03:12:41;;;;;;;1.00;0.40;;;;;;;;;;5012736;28;20065;-80
2022/01/30 03:15:07;;;;;;;1.40;0.50;;;;;;;;;;5012248;28;20041;-77
2022/01/30 03:17:33;;;;;;;1.63;0.70;;;;;;;;;;5013390;28;20026;-84
2022/01/30 03:20:00;;;;;;;1.33;0.50;;;;;;;;;;5013987;28;20470;-78
2022/01/30 03:22:26;;;;;;;1.67;0.50;;;;;;;;;;5016013;28;20105;-78
2022/01/30 03:24:53;;;;;;;1.45;0.57;;;;;;;;;;5015729;28;20026;-78
2022/01/30 03:27:19;;;;;;;1.20;0.60;;;;;;;;;;5017066;28;20083;-81
2022/01/30 03:29:51;;;;;;;3.90;0.55;;;;;;;;;;5015512;28;20040;-79
2022/01/30 03:32:17;;;;;;;1.67;0.68;;;;;;;;;;5015704;28;20025;-80
2022/01/30 03:34:44;;;;;;;1.45;0.50;;;;;;;;;;5015578;28;20184;-78
2022/01/30 03:37:10;;;;;;;1.42;0.50;;;;;;;;;;5015364;28;20113;-77
2022/01/30 03:39:36;;;;;;;1.20;0.68;;;;;;;;;;5016513;28;20022;-79
2022/01/30 03:42:02;;;;;;;1.45;0.65;;;;;;;;;;5015232;28;20471;-79
2022/01/30 03:44:28;;;;;;;1.60;0.70;;;;;;;;;;5016380;28;20021;-77
2022/01/30 03:46:55;;;;;;;1.05;0.50;;;;;;;;;;5015053;28;20042;-77
2022/01/30 03:49:21;;;;;;;2.67;0.68;;;;;;;;;;5016357;28;20057;-76
2022/01/30 03:51:47;;;;;;;1.85;0.60;;;;;;;;;;5016305;28;20030;-77
2022/01/30 03:54:14;;;;;;;1.55;0.50;;;;;;;;;;5016014;28;20061;-79
2022/01/30 03:59:07;;;;;;;1.33;0.50;;;;;;;;;;5015148;28;20418;-77
2022/01/30 04:01:33;;;;;;;1.58;0.60;;;;;;;;;;5016732;28;20029;-79
2022/01/30 04:03:59;;;;;;;2.65;0.60;;;;;;;;;;5016188;28;20018;-77
2022/01/30 04:06:25;;;;;;;1.27;0.60;;;;;;;;;;5014940;28;20073;-81
2022/01/30 04:08:52;;;;;;;1.02;0.50;;;;;;;;;;5016087;28;20025;-78
2022/01/30 04:11:18;;;;;;;1.30;0.60;;;;;;;;;;5014740;28;20089;-77
2022/01/30 04:13:45;;;;;;;0.90;0.40;;;;;;;;;;5014658;28;20364;-81
2022/01/30 04:16:11;;;;;;;1.15;0.43;;;;;;;;;;5015982;28;20033;-83
2022/01/30 04:18:38;;;;;;;1.20;0.40;;;;;;;;;;5014656;28;20018;-77
2022/01/30 04:21:04;;;;;;;1.05;0.20;;;;;;;;;;5016214;28;20053;-76
2022/01/30 04:23:30;;;;;;;1.30;0.40;;;;;;;;;;5014479;28;20026;-79
2022/01/30 04:25:56;;;;;;;0.82;0.30;;;;;;;;;;5014322;28;20072;-77
2022/01/30 04:28:22;;;;;;;1.15;0.40;;;;;;;;;;5014414;28;20372;-76
2022/01/30 04:30:49;;;;;;;1.33;0.50;;;;;;;;;;5014312;28;20132;-81
2022/01/30 04:33:15;;;;;;;0.95;0.40;;;;;;;;;;5015697;28;20034;-80
2022/01/30 04:35:41;;;;;;;0.63;0.30;;;;;;;;;;5014149;28;20018;-79
2022/01/30 04:41:05;;;;;;;0.70;0.30;;;;;;;;;;5015380;28;20026;-79
2022/01/30 04:55:28;;;;;;;1.30;0.40;;;;;;;;;;5015349;28;20057;-77
2022/01/30 04:57:45;;;;;;;0.45;0.20;;;;;;;;;;5014901;28;20113;-79
2022/01/30 05:00:49;;;;;;;0.95;0.35;;;;;;;;;;5015743;28;20369;-81
2022/01/30 05:03:55;;;;;;;0.88;0.25;;;;;;;;;;5015000;28;20097;-79
2022/01/30 05:06:09;;;;;;;1.05;0.32;;;;;;;;;;5010994;28;20042;-79
2022/01/30 05:08:36;;;;;;;1.10;0.28;;;;;;;;;;5013732;28;20114;-76
2022/01/30 05:11:05;;;;;;;1.13;0.43;;;;;;;;;;5013742;28;20132;-75
2022/01/30 05:13:33;;;;;;;0.55;0.22;;;;;;;;;;5013809;28;20541;-75
2022/01/30 05:16:00;;;;;;;1.77;0.40;;;;;;;;;;5013596;28;20054;-79
2022/01/30 05:18:28;;;;;;;0.50;0.13;;;;;;;;;;5014762;28;20033;-76
2022/01/30 05:20:54;;;;;;;1.95;0.40;;;;;;;;;;5013506;28;20037;-78
2022/01/30 05:23:21;;;;;;;0.68;0.28;;;;;;;;;;5013514;28;20466;-77
2022/01/30 05:25:48;;;;;;;1.17;0.20;;;;;;;;;;5013369;28;20419;-78
2022/01/30 05:28:18;;;;;;;0.75;0.28;;;;;;;;;;5013408;28;20478;-78
2022/01/30 05:30:45;;;;;;;1.08;0.40;;;;;;;;;;5013741;28;20025;-76
2022/01/30 05:33:14;;;;;;;0.85;0.20;;;;;;;;;;5014590;28;20030;-79
2022/01/30 05:35:40;;;;;;;3.38;0.38;;;;;;;;;;5014394;28;20032;-80
2022/01/30 05:38:07;;;;;;;1.95;0.38;;;;;;;;;;5013097;28;20034;-74
2022/01/30 05:40:35;;;;;;;1.25;0.30;;;;;;;;;;5014852;28;20050;-78
2022/01/30 05:43:02;;;;;;;3.53;0.30;;;;;;;;;;5014221;28;20043;-75
2022/01/30 05:45:34;;;;;;;1.58;0.38;;;;;;;;;;5014239;28;20076;-75
2022/01/30 05:48:09;;;;;;;2.30;0.35;;;;;;;;;;5013010;28;20030;-75
2022/01/30 05:50:36;;;;;;;1.55;0.30;;;;;;;;;;5012805;28;20026;-82
2022/01/30 05:53:02;;;;;;;0.80;0.20;;;;;;;;;;5012813;28;20080;-77
2022/01/30 05:55:31;;;;;;;2.95;0.55;;;;;;;;;;5012566;28;20462;-83
2022/01/30 05:57:58;;;;;;;1.60;0.30;;;;;;;;;;5014614;28;20080;-79
2022/01/30 06:00:24;;;;;;;3.22;1.02;;;;;;;;;;5012783;28;20445;-76
2022/01/30 06:02:50;;;;;;;2.40;0.30;;;;;;;;;;5013861;28;20450;-77
2022/01/30 06:05:20;;;;;;;5.38;0.77;;;;;;;;;;5013810;28;20026;-76
2022/01/30 06:07:51;;;;;;;2.35;0.43;;;;;;;;;;5012599;28;20025;-77
2022/01/30 06:10:17;;;;;;;5.60;0.57;;;;;;;;;;5013760;28;20049;-77
2022/01/30 06:12:44;;;;;;;5.63;0.70;;;;;;;;;;5014271;28;20083;-77
2022/01/30 06:15:11;;;;;;;1.38;0.35;;;;;;;;;;5012560;28;20036;-76
2022/01/30 06:17:38;;;;;;;2.97;0.60;;;;;;;;;;5013758;28;20025;-77
2022/01/30 06:20:05;;;;;;;2.75;0.40;;;;;;;;;;5012474;28;20022;-77
2022/01/30 06:22:31;;;;;;;6.15;0.60;;;;;;;;;;5013634;28;20109;-77
2022/01/30 06:24:57;;;;;;;1.30;0.50;;;;;;;;;;5013718;28;20080;-77
2022/01/30 06:27:24;;;;;;;3.60;0.80;;;;;;;;;;5013476;28;20042;-77
2022/01/30 06:29:50;;;;;;;2.88;1.10;;;;;;;;;;5013955;28;20356;-77
2022/01/30 06:32:17;;;;;;;8.40;2.05;;;;;;;;;;5012264;28;20029;-76
2022/01/30 06:34:43;;;;;;;6.30;1.73;;;;;;;;;;5013672;28;20164;-77
2022/01/30 06:37:09;;;;;;;9.68;2.03;;;;;;;;;;5013499;28;20490;-77
2022/01/30 06:39:36;;;;;;;17.02;7.20;;;;;;;;;;5013540;28;20022;-77
2022/01/30 06:42:02;;;;;;;4.18;1.20;;;;;;;;;;5012182;28;20034;-77
2022/01/30 06:44:29;;;;;;;4.10;0.93;;;;;;;;;;5012244;28;20026;-77
2022/01/30 06:46:55;;;;;;;3.60;0.88;;;;;;;;;;5013348;28;20037;-77
2022/01/30 06:49:21;;;;;;;5.78;1.02;;;;;;;;;;5012265;28;20060;-78
2022/01/30 06:51:47;;;;;;;4.63;0.80;;;;;;;;;;5012370;28;20022;-81
2022/01/30 06:54:13;;;;;;;3.78;0.75;;;;;;;;;;5012904;28;20379;-79
2022/01/30 06:56:39;;;;;;;2.92;0.95;;;;;;;;;;5017317;28;20033;-77
2022/01/30 06:59:05;;;;;;;2.88;0.70;;;;;;;;;;5021086;28;20029;-76
2022/01/30 07:01:31;;;;;;;2.42;0.80;;;;;;;;;;5016816;28;20532;-79
2022/01/30 07:03:58;;;;;;;1.98;0.57;;;;;;;;;;5015996;28;20032;-78
2022/01/30 07:06:24;;;;;;;3.50;0.95;;;;;;;;;;5015867;28;20044;-76
2022/01/30 07:08:50;;;;;;;3.35;0.65;;;;;;;;;;5016019;28;20201;-75
2022/01/30 07:11:16;;;;;;;3.58;0.70;;;;;;;;;;5015909;28;20461;-75
2022/01/30 07:13:43;;;;;;;3.60;0.50;;;;;;;;;;5017564;28;20026;-76
2022/01/30 07:16:09;;;;;;;3.72;0.60;;;;;;;;;;5017652;28;20068;-79
2022/01/30 07:18:35;;;;;;;3.30;0.70;;;;;;;;;;5015682;28;20455;-79
2022/01/30 07:21:03;;;;;;;2.83;0.80;;;;;;;;;;5015616;28;20088;-78
2022/01/30 07:23:30;;;;;;;2.28;0.40;;;;;;;;;;5015665;28;20022;-77
2022/01/30 07:25:56;;;;;;;1.73;0.50;;;;;;;;;;5015433;28;20058;-77
2022/01/30 07:28:22;;;;;;;2.60;0.55;;;;;;;;;;5016219;28;20038;-75
2022/01/30 07:30:48;;;;;;;1.88;0.63;;;;;;;;;;5015639;28;20022;-76
2022/01/30 07:33:14;;;;;;;3.75;0.45;;;;;;;;;;5015464;28;20034;-76
2022/01/30 07:35:42;;;;;;;8.85;0.60;;;;;;;;;;5015296;28;20037;-76
2022/01/30 07:38:08;;;;;;;4.30;0.73;;;;;;;;;;5015265;28;20046;-77
2022/01/30 07:40:35;;;;;;;4.22;0.75;;;;;;;;;;5015085;28;20057;-76
2022/01/30 07:43:02;;;;;;;2.38;0.70;;;;;;;;;;5017094;28;20471;-79
2022/01/30 07:45:28;;;;;;;3.08;0.50;;;;;;;;;;5015126;28;20116;-75
2022/01/30 07:47:54;;;;;;;5.82;0.70;;;;;;;;;;5016356;28;20034;-76
2022/01/30 07:50:21;;;;;;;4.22;0.82;;;;;;;;;;5015111;28;20033;-75
2022/01/30 07:52:47;;;;;;;2.63;0.50;;;;;;;;;;5016851;28;20044;-76
2022/01/30 07:55:14;;;;;;;2.05;0.47;;;;;;;;;;5016242;28;20053;-76
2022/01/30 07:57:42;;;;;;;1.40;0.40;;;;;;;;;;5015053;28;20114;-78
2022/01/30 08:00:08;;;;;;;2.20;0.60;;;;;;;;;;5016103;28;20026;-75
2022/01/30 08:02:34;;;;;;;1.60;0.60;;;;;;;;;;5014797;28;20125;-75
2022/01/30 08:05:00;;;;;;;1.42;0.52;;;;;;;;;;5014627;28;20061;-75
2022/01/30 08:07:27;;;;;;;1.95;0.45;;;;;;;;;;5016840;28;20038;-76
2022/01/30 08:09:53;;;;;;;0.65;0.28;;;;;;;;;;5015875;28;20380;-74
2022/01/30 08:12:19;;;;;;;1.48;0.38;;;;;;;;;;5014372;28;20120;-76
2022/01/30 08:14:46;;;;;;;2.88;0.50;;;;;;;;;;5014044;28;20130;-75
2022/01/30 08:17:18;;;;;;;2.80;0.30;;;;;;;;;;5015428;28;20390;-74
2022/01/30 08:19:46;;;;;;;1.13;0.20;;;;;;;;;;5014234;28;20026;-77
2022/01/30 08:22:12;;;;;;;1.38;0.50;;;;;;;;;;5014233;28;20030;-72
2022/01/30 08:24:39;;;;;;;2.55;0.40;;;;;;;;;;5014051;28;20035;-75
2022/01/30 08:27:05;;;;;;;5.20;0.77;;;;;;;;;;5014061;28;20122;-74
2022/01/30 08:29:31;;;;;;;2.85;0.77;;;;;;;;;;5014150;28;20026;-74
2022/01/30 08:31:58;;;;;;;2.88;0.55;;;;;;;;;;5014347;28;20026;-74
2022/01/30 08:34:24;;;;;;;2.63;0.65;;;;;;;;;;5013989;28;20088;-74
2022/01/30 08:36:51;;;;;;;8.68;0.82;;;;;;;;;;5013875;28;20026;-74
2022/01/30 08:39:17;;;;;;;3.38;0.70;;;;;;;;;;5015654;28;20379;-75
2022/01/30 08:41:44;;;;;;;3.65;0.68;;;;;;;;;;5013980;28;20466;-80
2022/01/30 08:44:10;;;;;;;2.75;0.77;;;;;;;;;;5015215;28;20018;-80
2022/01/30 08:46:36;;;;;;;4.18;0.80;;;;;;;;;;5011840;28;20421;-75
2022/01/30 08:49:03;;;;;;;2.65;0.60;;;;;;;;;;5013660;28;20375;-79
2022/01/30 08:51:29;;;;;;;2.65;0.60;;;;;;;;;;5015536;28;20108;-76
2022/01/30 08:53:55;;;;;;;2.15;0.50;;;;;;;;;;5014867;28;20092;-74
2022/01/30 08:56:22;;;;;;;2.35;0.40;;;;;;;;;;5015723;28;20125;-77
2022/01/30 08:58:49;;;;;;;4.63;0.32;;;;;;;;;;5013774;28;20084;-74
2022/01/30 09:01:15;;;;;;;2.20;0.32;;;;;;;;;;5014990;28;20497;-76
2022/01/30 09:03:43;;;;;;;5.32;0.80;;;;;;;;;;5014931;28;20026;-74
2022/01/30 09:06:09;;;;;;;2.90;0.50;;;;;;;;;;5014747;28;20026;-74
2022/01/30 09:08:36;;;;;;;3.92;0.60;;;;;;;;;;5014762;28;20032;-74
2022/01/30 09:11:02;;;;;;;2.17;0.43;;;;;;;;;;5014790;28;20034;-75
2022/01/30 09:13:29;;;;;;;3.45;0.50;;;;;;;;;;5015209;28;20018;-74
2022/01/30 09:15:57;;;;;;;3.08;0.57;;;;;;;;;;5013329;28;20026;-74
2022/01/30 09:18:25;;;;;;;0.38;0.20;;;;;;;;;;5014518;28;20053;-74
2022/01/30 09:20:51;;;;;;;3.25;0.50;;;;;;;;;;5015073;28;20045;-75
2022/01/30 09:23:17;;;;;;;1.33;0.30;;;;;;;;;;5014551;28;20025;-75
2022/01/30 09:25:43;;;;;;;1.20;0.13;;;;;;;;;;5014659;28;20030;-75
2022/01/30 09:28:10;;;;;;;0.95;0.28;;;;;;;;;;5014478;28;20029;-75
2022/01/30 09:30:36;;;;;;;2.45;0.40;;;;;;;;;;5014411;28;20214;-75
2022/01/30 09:33:02;;;;;;;0.22;0.13;;;;;;;;;;5014853;28;20036;-74
2022/01/30 09:35:28;;;;;;;1.20;0.30;;;;;;;;;;5014418;28;20430;-74
2022/01/30 09:37:54;;;;;;;1.65;0.52;;;;;;;;;;5014318;28;20076;-74
2022/01/30 09:40:20;;;;;;;1.20;0.43;;;;;;;;;;5014286;28;20030;-75
2022/01/30 09:42:47;;;;;;;1.85;0.25;;;;;;;;;;5014779;28;20105;-76
2022/01/30 09:45:15;;;;;;;2.20;0.30;;;;;;;;;;5014689;28;20030;-75
2022/01/30 09:47:42;;;;;;;3.92;0.50;;;;;;;;;;5014744;28;20061;-76
2022/01/30 09:50:09;;;;;;;2.58;0.38;;;;;;;;;;5014583;28;20060;-75
2022/01/30 09:52:36;;;;;;;2.80;0.55;;;;;;;;;;5014080;28;20029;-75
2022/01/30 09:55:03;;;;;;;1.05;0.32;;;;;;;;;;5013876;28;20049;-77
2022/01/30 09:57:29;;;;;;;1.40;0.30;;;;;;;;;;5014559;28;20356;-76
2022/01/30 09:59:58;;;;;;;3.20;0.40;;;;;;;;;;5013863;28;20033;-75
2022/01/30 10:02:26;;;;;;;3.42;0.50;;;;;;;;;;5014031;28;20032;-76
2022/01/30 10:04:52;;;;;;;3.95;0.70;;;;;;;;;;5013891;28;20034;-75
2022/01/30 10:07:20;;;;;;;2.92;0.40;;;;;;;;;;5011021;28;20042;-74
2022/01/30 10:09:49;;;;;;;1.65;0.30;;;;;;;;;;5013522;28;20029;-75
2022/01/30 10:12:16;;;;;;;0.60;0.20;;;;;;;;;;5013903;28;20025;-74
2022/01/30 10:15:01;;;;;;;1.88;0.45;;;;;;;;;;5013677;28;20054;-74
2022/01/30 10:17:37;;;;;;;1.63;0.28;;;;;;;;;;5013655;28;20045;-74
2022/01/30 10:20:14;;;;;;;1.42;0.60;;;;;;;;;;5013704;28;20033;-75
2022/01/30 10:23:11;;;;;;;3.08;0.65;;;;;;;;;;5013164;28;20068;-75
2022/01/30 10:25:38;;;;;;;7.75;0.88;;;;;;;;;;5004527;28;20487;-74
2022/01/30 10:28:05;;;;;;;3.30;0.50;;;;;;;;;;5014194;28;20033;-76
2022/01/30 10:30:39;;;;;;;2.50;0.43;;;;;;;;;;5016274;28;20022;-74
2022/01/30 10:33:08;;;;;;;1.95;0.47;;;;;;;;;;5016592;28;20053;-75
2022/01/30 10:35:53;;;;;;;9.95;0.90;;;;;;;;;;5016333;28;20474;-75
2022/01/30 10:38:35;;;;;;;2.65;0.55;;;;;;;;;;5016230;28;20111;-74
2022/01/30 10:41:14;;;;;;;2.78;0.40;;;;;;;;;;5016236;28;20088;-77
2022/01/30 10:43:47;;;;;;;2.65;0.55;;;;;;;;;;5017989;28;20025;-76
2022/01/30 10:46:20;;;;;;;2.67;0.60;;;;;;;;;;5016467;28;20037;-76
2022/01/30 10:49:00;;;;;;;3.65;0.90;;;;;;;;;;5017213;28;20029;-75
2022/01/30 10:51:31;;;;;;;4.00;0.47;;;;;;;;;;5016307;28;20543;-75
2022/01/30 10:53:58;;;;;;;2.90;0.65;;;;;;;;;;5016019;28;20398;-76
2022/01/30 10:56:27;;;;;;;2.35;0.57;;;;;;;;;;5017185;28;20026;-76
2022/01/30 10:59:12;;;;;;;1.40;0.50;;;;;;;;;;5015801;28;20038;-77
2022/01/30 11:01:43;;;;;;;3.10;0.57;;;;;;;;;;5017007;28;20057;-75
2022/01/30 11:04:25;;;;;;;1.52;0.40;;;;;;;;;;5015772;28;20030;-76
2022/01/30 11:06:52;;;;;;;2.47;0.57;;;;;;;;;;5015187;28;20034;-76
2022/01/30 11:09:26;;;;;;;0.68;0.20;;;;;;;;;;5016919;28;20033;-74
2022/01/30 11:12:01;;;;;;;4.30;0.75;;;;;;;;;;5016937;28;20133;-75
2022/01/30 11:14:52;;;;;;;3.83;0.30;;;;;;;;;;5016816;28;20106;-75
2022/01/30 11:17:22;;;;;;;3.17;0.40;;;;;;;;;;5017401;28;20131;-77
2022/01/30 11:19:51;;;;;;;4.95;0.60;;;;;;;;;;5015300;28;20403;-76
2022/01/30 11:22:19;;;;;;;5.70;0.60;;;;;;;;;;5015499;28;20377;-76
2022/01/30 11:24:49;;;;;;;1.73;0.68;;;;;;;;;;5015414;28;20036;-76
2022/01/30 11:27:16;;;;;;;4.15;0.73;;;;;;;;;;5015415;28;20042;-76
2022/01/30 11:29:43;;;;;;;3.30;0.52;;;;;;;;;;5016755;28;20058;-76
2022/01/30 11:32:09;;;;;;;3.00;0.70;;;;;;;;;;5015379;28;20030;-76
2022/01/30 11:34:36;;;;;;;4.90;0.70;;;;;;;;;;5016568;28;20431;-75
2022/01/30 11:37:03;;;;;;;2.42;0.52;;;;;;;;;;5015229;28;20032;-76
2022/01/30 11:39:29;;;;;;;9.02;0.75;;;;;;;;;;5014813;28;20036;-76
2022/01/30 11:42:05;;;;;;;4.72;0.65;;;;;;;;;;5014802;28;20092;-76
2022/01/30 11:44:31;;;;;;;3.80;0.63;;;;;;;;;;5015031;28;20030;-79
2022/01/30 11:46:58;;;;;;;3.95;1.02;;;;;;;;;;5015064;28;20430;-76
2022/01/30 11:49:43;;;;;;;3.45;0.70;;;;;;;;;;5015033;28;20018;-76
2022/01/30 11:52:10;;;;;;;3.92;0.80;;;;;;;;;;5016277;28;20390;-77
2022/01/30 11:54:46;;;;;;;2.75;0.75;;;;;;;;;;5014683;28;20556;-77
2022/01/30 11:57:21;;;;;;;4.20;1.02;;;;;;;;;;5014866;28;20026;-75
2022/01/30 11:59:51;;;;;;;8.75;1.00;;;;;;;;;;5016081;28;20030;-76
2022/01/30 12:02:30;;;;;;;4.55;1.20;;;;;;;;;;5014777;28;20072;-76
2022/01/30 12:05:11;;;;;;;5.63;1.45;;;;;;;;;;5014846;28;20029;-76
2022/01/30 12:07:45;;;;;;;3.22;0.80;;;;;;;;;;5014558;28;20034;-76
2022/01/30 12:10:26;;;;;;;3.83;0.70;;;;;;;;;;5015891;28;20498;-76
2022/01/30 12:12:53;;;;;;;4.35;1.02;;;;;;;;;;5014561;28;20037;-76
2022/01/30 12:15:37;;;;;;;7.10;0.80;;;;;;;;;;5015782;28;20026;-76
2022/01/30 12:18:04;;;;;;;5.93;0.90;;;;;;;;;;5014497;28;20037;-77
2022/01/30 12:20:32;;;;;;;8.07;0.90;;;;;;;;;;5014406;28;20052;-77
2022/01/30 12:22:58;;;;;;;3.42;0.57;;;;;;;;;;5014380;28;20030;-76
2022/01/30 12:25:34;;;;;;;2.30;0.70;;;;;;;;;;5015531;28;20053;-77
2022/01/30 12:28:02;;;;;;;2.83;0.77;;;;;;;;;;5014306;28;20034;-77
2022/01/30 12:30:35;;;;;;;4.13;1.00;;;;;;;;;;5015694;28;20028;-78
2022/01/30 12:33:01;;;;;;;;;;;;;;;;;;5014726;28;20030;-76
2022/01/30 12:35:29;;;;;;;6.07;0.70;;;;;;;;;;5014293;28;20380;-75
2022/01/30 12:37:55;;;;;;;6.97;0.60;;;;;;;;;;5014154;28;20474;-75
2022/01/30 12:40:22;;;;;;;4.07;0.75;;;;;;;;;;5015318;28;20414;-77
2022/01/30 12:42:48;;;;;;;1.60;0.50;;;;;;;;;;5015377;28;20382;-76
2022/01/30 12:45:15;;;;;;;2.95;0.45;;;;;;;;;;5013980;28;20026;-74
2022/01/30 12:47:59;;;;;;;1.40;0.25;;;;;;;;;;5015151;28;20112;-76
2022/01/30 12:50:28;;;;;;;5.32;0.38;;;;;;;;;;5013933;28;20061;-76
2022/01/30 12:52:55;;;;;;;2.70;0.77;;;;;;;;;;5013005;28;20038;-78
2022/01/30 12:55:22;;;;;;;2.35;0.40;;;;;;;;;;5013685;28;20046;-79
2022/01/30 12:57:53;;;;;;;6.90;0.80;;;;;;;;;;5013849;28;20021;-75
2022/01/30 13:00:19;;;;;;;3.85;0.75;;;;;;;;;;5013875;28;20037;-75
2022/01/30 13:02:56;;;;;;;4.00;0.57;;;;;;;;;;5013699;28;20486;-79
2022/01/30 13:05:23;;;;;;;3.88;0.70;;;;;;;;;;5013730;28;20044;-76
2022/01/30 13:07:53;;;;;;;1.52;0.40;;;;;;;;;;5013757;28;20038;-80
2022/01/30 13:10:19;;;;;;;3.05;0.63;;;;;;;;;;5002361;28;20033;-78
2022/01/30 13:12:45;;;;;;;4.68;0.95;;;;;;;;;;5008569;28;20027;-78
2022/01/30 13:15:13;;;;;;;5.72;0.70;;;;;;;;;;4993824;28;20018;-76
2022/01/30 13:17:40;;;;;;;2.85;0.60;;;;;;;;;;5004889;28;20425;-77
2022/01/30 13:20:07;;;;;;;3.40;0.50;;;;;;;;;;5013285;28;20138;-77
2022/01/30 13:22:37;;;;;;;5.32;0.80;;;;;;;;;;5013262;28;20486;-78
2022/01/30 13:25:05;;;;;;;5.13;0.70;;;;;;;;;;5012349;28;20061;-81
2022/01/30 13:27:31;;;;;;;4.32;0.90;;;;;;;;;;4993522;28;20125;-77
2022/01/30 13:29:58;;;;;;;7.60;0.80;;;;;;;;;;4993796;28;20049;-76
2022/01/30 13:32:28;;;;;;;2.38;0.82;;;;;;;;;;4993554;28;20065;-77
2022/01/30 13:34:57;;;;;;;2.88;0.57;;;;;;;;;;5003933;28;20022;-74
2022/01/30 13:37:23;;;;;;;8.15;0.68;;;;;;;;;;5014377;28;20068;-77
2022/01/30 13:45:06;;;;;;;4.63;0.93;;;;;;;;;;5014424;28;20026;-80
2022/01/30 13:47:33;;;;;;;6.07;1.00;;;;;;;;;;5014803;28;20040;-79
2022/01/30 13:50:00;;;;;;;5.00;0.80;;;;;;;;;;5014133;28;20096;-77
2022/01/30 13:52:31;;;;;;;6.32;1.45;;;;;;;;;;5012802;28;20092;-78
2022/01/30 13:54:58;;;;;;;5.60;0.57;;;;;;;;;;5013899;28;20057;-75
2022/01/30 13:57:29;;;;;;;5.25;0.75;;;;;;;;;;5012773;28;20025;-81
2022/01/30 14:00:03;;;;;;;3.83;0.80;;;;;;;;;;5014664;28;20402;-75
2022/01/30 14:02:30;;;;;;;2.90;0.60;;;;;;;;;;5014550;28;20447;-77
2022/01/30 14:04:56;;;;;;;6.55;0.80;;;;;;;;;;5012442;28;20029;-75
2022/01/30 14:07:22;;;;;;;4.28;0.68;;;;;;;;;;5012696;28;20056;-79
2022/01/30 14:09:52;;;;;;;4.60;0.95;;;;;;;;;;5013879;28;20036;-77
2022/01/30 14:12:18;;;;;;;4.43;0.80;;;;;;;;;;5014445;28;20033;-76
2022/01/30 14:15:03;;;;;;;5.65;1.17;;;;;;;;;;5013922;28;20022;-74
2022/01/30 14:17:29;;;;;;;3.45;0.65;;;;;;;;;;4994912;28;20032;-79
2022/01/30 14:20:03;;;;;;;2.58;0.93;;;;;;;;;;4994460;28;20054;-83
2022/01/30 14:22:33;;;;;;;9.07;0.80;;;;;;;;;;4994301;28;20022;-76
2022/01/30 14:25:02;;;;;;;6.45;0.82;;;;;;;;;;4994107;28;20475;-76
2022/01/30 14:27:28;;;;;;;2.88;0.40;;;;;;;;;;4992806;28;20030;-78
2022/01/30 14:30:04;;;;;;;3.92;0.57;;;;;;;;;;4993968;28;20053;-76
2022/01/30 14:32:34;;;;;;;3.25;0.95;;;;;;;;;;4994112;28;20025;-76
2022/01/30 14:35:01;;;;;;;5.85;0.90;;;;;;;;;;4992758;28;20093;-77
2022/01/30 14:37:27;;;;;;;7.93;1.00;;;;;;;;;;4994066;28;20026;-78
2022/01/30 14:39:57;;;;;;;6.95;1.17;;;;;;;;;;4992755;28;20475;-78
2022/01/30 14:42:24;;;;;;;5.80;1.42;;;;;;;;;;4992836;28;20030;-78
2022/01/30 14:44:50;;;;;;;7.65;1.10;;;;;;;;;;4993563;28;20403;-76
2022/01/30 14:47:16;;;;;;;5.50;0.80;;;;;;;;;;4992240;28;20061;-82
2022/01/30 14:49:43;;;;;;;6.80;0.82;;;;;;;;;;4993855;28;20030;-77
2022/01/30 14:52:09;;;;;;;6.28;1.10;;;;;;;;;;4992520;28;20050;-75
2022/01/30 14:54:36;;;;;;;4.30;0.93;;;;;;;;;;4992232;28;20133;-74
2022/01/30 14:57:04;;;;;;;5.03;1.30;;;;;;;;;;4992223;28;20101;-76
2022/01/30 14:59:30;;;;;;;2.65;0.68;;;;;;;;;;4993917;28;20030;-75
2022/01/30 15:01:57;;;;;;;5.70;0.98;;;;;;;;;;4992252;28;20058;-74
2022/01/30 15:04:23;;;;;;;4.20;0.95;;;;;;;;;;4992205;28;20034;-75
2022/01/30 15:06:49;;;;;;;3.65;1.00;;;;;;;;;;4993384;28;20129;-75
2022/01/30 15:09:15;;;;;;;4.80;1.20;;;;;;;;;;4993597;28;20030;-74
2022/01/30 15:11:42;;;;;;;8.85;1.33;;;;;;;;;;4993816;28;20044;-74
2022/01/30 15:14:10;;;;;;;6.38;1.20;;;;;;;;;;4992182;28;20058;-73
2022/01/30 15:16:41;;;;;;;7.47;0.98;;;;;;;;;;4996181;28;20407;-78
2022/01/30 15:19:08;;;;;;;5.85;1.55;;;;;;;;;;5003475;28;20024;-73
2022/01/30 15:21:35;;;;;;;4.32;1.15;;;;;;;;;;5010285;28;20057;-74
2022/01/30 15:24:01;;;;;;;6.85;0.95;;;;;;;;;;5015010;28;20040;-74
2022/01/30 15:26:27;;;;;;;11.25;1.55;;;;;;;;;;5014154;28;20068;-76
2022/01/30 15:28:54;;;;;;;5.53;1.27;;;;;;;;;;5014815;28;20079;-74
2022/01/30 15:31:20;;;;;;;8.60;1.83;;;;;;;;;;5015210;28;20026;-73
2022/01/30 15:33:46;;;;;;;4.57;1.13;;;;;;;;;;5015083;28;20030;-74
2022/01/30 15:36:12;;;;;;;9.77;1.25;;;;;;;;;;5016316;28;20029;-77
2022/01/30 15:38:39;;;;;;;9.50;1.83;;;;;;;;;;5015054;28;20495;-75
2022/01/30 15:41:05;;;;;;;6.60;1.25;;;;;;;;;;5016182;28;20048;-75